Time;durP1;ratioP1;P1;durP2;ratioP2;P2;SDS_P1;SDS_P2;PMS_P1;PMS_P2;Temp;Humidity;BMP_temperature;BMP_pressure;BME280_temperature;BME280_humidity;BME280_pressure;Samples;Min_cycle;Max_cycle;Signal;HPM_P1;HPM_P2
2022/12/21 00:00:51;;;;;;;;;2.00;2.00;;;;;22.39;38.87;100650.56;5085110;27;45720;-39
2022/12/21 00:03:17;;;;;;;;;3.00;3.00;;;;;22.36;38.88;100656.91;5086953;27;45432;-37
2022/12/21 00:05:42;;;;;;;;;1.50;1.50;;;;;22.33;38.96;100658.88;5091458;28;45310;-37
2022/12/21 00:08:07;;;;;;;;;2.00;2.00;;;;;22.33;38.88;100672.06;5088863;28;67174;-37
2022/12/21 00:10:33;;;;;;;;;4.00;2.75;;;;;22.32;39.10;100659.84;5084545;28;48800;-37
2022/12/21 00:12:58;;;;;;;;;3.00;3.00;;;;;22.30;38.81;100659.94;5084039;27;45253;-39
2022/12/21 00:15:23;;;;;;;;;4.25;2.25;;;;;22.28;39.09;100669.75;5081429;27;45607;-37
2022/12/21 00:17:49;;;;;;;;;2.00;0.50;;;;;22.27;39.25;100667.22;5084842;27;46169;-37
2022/12/21 00:20:14;;;;;;;;;2.00;2.00;;;;;22.25;38.98;100664.69;5084766;28;46565;-37
2022/12/21 00:22:39;;;;;;;;;3.50;2.00;;;;;22.26;38.91;100665.50;5083090;27;45354;-37
2022/12/21 00:25:05;;;;;;;;;3.00;3.00;;;;;22.24;38.88;100668.28;5088052;27;48838;-37
2022/12/21 00:27:30;;;;;;;;;6.00;3.00;;;;;22.22;39.12;100665.72;5082302;28;46486;-38
2022/12/21 00:29:56;;;;;;;;;2.50;2.50;;;;;22.21;39.00;100666.66;5082831;27;45338;-38
2022/12/21 00:32:21;;;;;;;;;2.50;2.50;;;;;22.19;38.64;100668.56;5098129;28;47976;-38
2022/12/21 00:34:48;;;;;;;;;2.00;2.00;;;;;22.18;38.92;100655.44;5085302;27;54518;-37
2022/12/21 00:37:13;;;;;;;;;2.75;2.75;;;;;22.16;38.77;100652.94;5078357;28;47042;-39
2022/12/21 00:39:38;;;;;;;;;2.25;0.50;;;;;22.15;38.82;100660.94;5078027;27;45320;-39
2022/12/21 00:42:03;;;;;;;;;2.00;2.00;;;;;22.14;39.15;100653.97;5092587;27;60015;-39
2022/12/21 00:44:29;;;;;;;;;2.50;2.00;;;;;22.12;39.08;100654.06;5077450;27;45576;-38
2022/12/21 00:46:54;;;;;;;;;4.00;2.00;;;;;22.10;39.10;100658.63;5077163;28;46554;-39
2022/12/21 00:49:19;;;;;;;;;6.33;2.67;;;;;22.08;39.05;100655.22;5076398;28;65504;-39
2022/12/21 00:51:45;;;;;;;;;1.50;1.50;;;;;22.06;38.85;100654.47;5077143;27;45565;-40
2022/12/21 00:54:10;;;;;;;;;2.00;1.33;;;;;22.02;39.01;100647.69;5076547;27;55116;-37
2022/12/21 00:56:35;;;;;;;;;3.00;2.00;;;;;22.03;38.91;100659.94;5077033;27;45293;-38
2022/12/21 00:59:00;;;;;;;;;1.67;1.67;;;;;21.99;39.16;100655.81;5078348;28;62132;-39
2022/12/21 01:01:33;;;;;;;;;2.75;2.00;;;;;21.99;38.78;100663.75;5083766;27;45507;-40
2022/12/21 01:03:59;;;;;;;;;2.50;2.25;;;;;21.96;39.32;100661.28;5079265;27;45338;-37
2022/12/21 01:06:31;;;;;;;;;2.75;2.50;;;;;21.98;39.30;100667.31;5077235;27;46158;-38
2022/12/21 01:08:57;;;;;;;;;2.00;2.00;;;;;21.96;39.26;100663.94;5076778;27;45417;-37
2022/12/21 01:11:24;;;;;;;;;2.00;2.00;;;;;21.94;39.04;100671.91;5092755;27;45603;-38
2022/12/21 01:13:51;;;;;;;;;4.00;2.00;;;;;21.93;39.15;100680.81;5077142;27;45381;-39
2022/12/21 01:16:20;;;;;;;;;2.00;2.00;;;;;21.90;39.46;100676.56;5076941;27;46750;-37
2022/12/21 01:18:46;;;;;;;;;2.00;2.00;;;;;21.88;39.50;100674.97;5076565;27;45750;-38
2022/12/21 01:21:19;;;;;;;;;2.00;2.00;;;;;21.85;39.59;100665.47;5076879;27;45389;-38
2022/12/21 01:23:45;;;;;;;;;3.00;3.00;;;;;21.87;39.60;100675.91;5077330;27;45582;-38
2022/12/21 01:26:11;;;;;;;;;2.25;2.25;;;;;21.82;39.67;100676.19;5077209;27;47053;-37
2022/12/21 01:28:36;;;;;;;;;0.00;0.00;;;;;21.81;39.44;100677.16;5084479;28;45776;-38
2022/12/21 01:31:02;;;;;;;;;2.00;2.00;;;;;21.82;39.91;100676.19;5090539;27;45336;-39
2022/12/21 01:33:28;;;;;;;;;1.75;1.75;;;;;21.81;39.83;100682.41;5081101;27;45447;-38
2022/12/21 01:35:54;;;;;;;;;1.25;1.25;;;;;21.81;39.76;100684.22;5080121;27;46236;-37
2022/12/21 01:38:19;;;;;;;;;2.75;1.50;;;;;21.80;39.80;100682.53;5080173;27;45349;-42
2022/12/21 01:40:44;;;;;;;;;2.00;2.00;;;;;21.78;39.66;100677.34;5079119;28;45425;-38
2022/12/21 01:43:37;;;;;;;;;3.50;2.00;;;;;21.77;39.89;100675.66;5080219;27;45717;-41
2022/12/21 01:46:05;;;;;;;;;2.00;2.00;;;;;21.71;39.82;100673.41;5083030;27;47444;-38
2022/12/21 01:48:39;;;;;;;;;1.25;1.25;;;;;21.75;39.87;100688.09;5080095;27;45384;-38
2022/12/21 01:51:06;;;;;;;;;2.00;2.00;;;;;21.72;39.94;100694.38;5078978;28;45332;-38
2022/12/21 01:53:41;;;;;;;;;2.00;1.00;;;;;21.71;39.81;100691.84;5080330;27;45211;-37
2022/12/21 01:56:10;;;;;;;;;2.00;2.00;;;;;21.71;39.99;100691.84;5082076;28;46507;-37
2022/12/21 01:58:36;;;;;;;;;2.00;2.00;;;;;21.69;40.26;100694.59;5086793;27;45233;-40
2022/12/21 02:01:03;;;;;;;;;2.00;2.00;;;;;21.67;40.29;100692.97;5081373;27;45297;-37
2022/12/21 02:03:38;;;;;;;;;2.00;2.00;;;;;21.68;40.16;100697.31;5081027;28;45349;-37
2022/12/21 02:06:19;;;;;;;;;3.00;2.00;;;;;21.65;40.10;100698.38;5082525;27;45675;-38
2022/12/21 02:08:46;;;;;;;;;2.75;2.50;;;;;21.64;40.30;100707.22;5082436;27;45215;-37
2022/12/21 02:11:11;;;;;;;;;2.00;1.00;;;;;21.61;40.47;100713.53;5084342;27;45440;-38
2022/12/21 02:13:37;;;;;;;;;3.25;2.00;;;;;21.59;40.23;100722.50;5081850;27;45491;-39
2022/12/21 02:16:17;;;;;;;;;2.25;2.00;;;;;21.60;40.07;100725.03;5080774;27;53008;-40
2022/12/21 02:19:07;;;;;;;;;2.00;2.00;;;;;21.58;40.56;100724.25;5086202;27;45518;-39
2022/12/21 02:21:50;;;;;;;;;2.00;2.00;;;;;21.57;40.19;100722.53;5088644;27;45344;-39
2022/12/21 02:24:53;;;;;;;;;2.00;2.00;;;;;21.55;40.24;100718.31;5086856;27;45156;-37
2022/12/21 02:27:24;;;;;;;;;1.25;1.25;;;;;21.51;40.26;100720.28;5082518;27;46489;-40
2022/12/21 02:29:55;;;;;;;;;2.25;1.00;;;;;21.52;40.30;100711.44;5079311;27;45351;-37
2022/12/21 02:32:45;;;;;;;;;3.00;1.25;;;;;21.53;40.40;100717.56;5079813;27;45225;-37
2022/12/21 02:35:38;;;;;;;;;1.00;1.00;;;;;21.52;40.52;100711.44;5079455;27;45310;-38
2022/12/21 02:38:31;;;;;;;;;1.75;1.25;;;;;21.49;40.22;100709.00;5078731;28;46234;-38
2022/12/21 02:41:22;;;;;;;;;3.50;1.75;;;;;21.45;40.20;100700.41;5078533;27;45354;-38
2022/12/21 02:44:24;;;;;;;;;4.00;2.75;;;;;21.49;40.49;100716.06;5078890;27;45325;-38
2022/12/21 02:46:52;;;;;;;;;2.00;2.00;;;;;21.47;40.25;100714.38;5059458;27;46496;-38
2022/12/21 02:49:20;;;;;;;;;2.00;1.00;;;;;21.43;40.32;100709.38;5078362;27;52751;-37
2022/12/21 02:52:02;;;;;;;;;1.00;1.00;;;;;21.43;40.15;100715.47;5084668;27;45380;-37
2022/12/21 02:54:28;;;;;;;;;1.50;1.50;;;;;21.41;40.22;100711.25;5082808;27;45477;-37
2022/12/21 02:56:53;;;;;;;;;1.75;1.75;;;;;21.42;40.14;100710.31;5079169;28;45189;-38
2022/12/21 02:59:23;;;;;;;;;1.00;1.00;;;;;21.40;40.44;100720.09;5078768;27;46063;-37
2022/12/21 03:02:05;;;;;;;;;0.25;0.25;;;;;21.42;40.43;100726.13;5078678;27;45422;-37
2022/12/21 03:04:33;;;;;;;;;2.00;2.00;;;;;21.41;40.18;100719.16;5078633;27;45427;-37
2022/12/21 03:07:16;;;;;;;;;1.25;1.25;;;;;21.39;40.17;100721.88;5078798;27;45334;-38
2022/12/21 03:09:50;;;;;;;;;3.25;1.00;;;;;21.34;40.42;100723.97;5078431;27;45470;-41
2022/12/21 03:12:40;;;;;;;;;1.00;1.00;;;;;21.34;40.57;100726.59;5078532;27;45697;-37
2022/12/21 03:15:29;;;;;;;;;1.00;1.00;;;;;21.31;40.51;100729.41;5078659;28;45316;-38
2022/12/21 03:18:01;;;;;;;;;1.00;1.00;;;;;21.34;40.40;100738.91;5079892;28;45333;-37
2022/12/21 03:20:44;;;;;;;;;3.00;1.00;;;;;21.33;40.31;100738.06;5085724;27;45682;-37
2022/12/21 03:23:49;;;;;;;;;1.00;1.00;;;;;21.33;40.53;100739.88;5079829;27;45847;-39
2022/12/21 03:26:23;;;;;;;;;1.00;1.00;;;;;21.30;40.36;100736.47;5078553;28;45373;-39
2022/12/21 03:28:51;;;;;;;;;1.00;1.00;;;;;21.27;40.33;100726.13;5078547;28;45349;-38
2022/12/21 03:31:22;;;;;;;;;1.00;1.00;;;;;21.30;40.31;100731.22;5077909;27;45262;-37
2022/12/21 03:33:58;;;;;;;;;1.00;1.00;;;;;21.28;40.44;100735.72;5077801;27;45286;-38
2022/12/21 03:36:32;;;;;;;;;2.25;1.00;;;;;21.29;40.44;100741.81;5077999;27;45400;-37
2022/12/21 03:39:05;;;;;;;;;1.25;0.75;;;;;21.29;40.43;100737.41;5078346;27;45307;-37
2022/12/21 03:41:40;;;;;;;;;1.75;1.75;;;;;21.29;40.59;100755.00;5077848;27;46842;-38
2022/12/21 03:44:11;;;;;;;;;1.00;1.00;;;;;21.29;40.48;100740.06;5078098;27;45250;-37
2022/12/21 03:46:46;;;;;;;;;2.00;1.00;;;;;21.31;40.56;100743.44;5080121;27;45211;-37
2022/12/21 03:49:25;;;;;;;;;2.00;2.00;;;;;21.36;40.28;100744.94;5082922;27;45227;-38
2022/12/21 03:51:56;;;;;;;;;2.00;1.00;;;;;21.39;40.15;100747.41;5078763;27;45599;-38
2022/12/21 03:54:38;;;;;;;;;0.00;0.00;;;;;21.39;40.27;100737.69;5076634;28;45778;-38
2022/12/21 03:57:07;;;;;;;;;2.50;1.25;;;;;21.46;40.00;100738.16;5078115;27;45337;-37
2022/12/21 03:59:33;;;;;;;;;0.50;0.50;;;;;21.51;40.12;100749.28;5079133;27;45287;-39
2022/12/21 04:02:08;;;;;;;;;1.25;0.25;;;;;21.51;39.89;100741.38;5095393;27;47363;-36
2022/12/21 04:04:48;;;;;;;;;2.00;0.75;;;;;21.55;40.03;100742.88;5085621;27;45658;-38
2022/12/21 04:07:17;;;;;;;;;0.50;0.50;;;;;21.59;40.04;100741.78;5095062;27;45241;-37
2022/12/21 04:09:44;;;;;;;;;0.25;0.25;;;;;21.65;40.04;100750.28;5090444;28;45263;-40
2022/12/21 04:14:56;;;;;;;;;1.00;0.00;;;;;21.71;39.68;100749.88;5088347;28;45231;-41
2022/12/21 04:17:21;;;;;;;;;0.00;0.00;;;;;21.74;40.01;100753.19;5091542;27;45358;-37
2022/12/21 04:19:59;;;;;;;;;0.00;0.00;;;;;21.76;39.72;100758.38;5080652;27;45319;-37
2022/12/21 04:28:07;;;;;;;;;1.00;1.00;;;;;21.82;39.72;100757.16;5077474;28;45220;-37
2022/12/21 04:30:40;;;;;;;;;0.00;0.00;;;;;21.82;39.91;100768.53;5077483;27;45473;-38
2022/12/21 04:33:08;;;;;;;;;0.00;0.00;;;;;21.84;39.37;100769.28;5076873;27;46341;-38
2022/12/21 04:35:34;;;;;;;;;1.25;0.00;;;;;21.85;39.32;100768.34;5076996;28;45252;-37
2022/12/21 04:38:00;;;;;;;;;0.00;0.00;;;;;21.90;39.29;100766.25;5077057;27;45248;-38
2022/12/21 04:40:26;;;;;;;;;0.00;0.00;;;;;21.92;39.47;100764.38;5077377;27;45624;-38
2022/12/21 04:42:52;;;;;;;;;0.00;0.00;;;;;21.95;39.13;100773.88;5079519;27;45452;-38
2022/12/21 04:45:17;;;;;;;;;0.00;0.00;;;;;21.95;39.24;100771.25;5079965;27;45332;-37
2022/12/21 04:47:43;;;;;;;;;0.00;0.00;;;;;21.97;38.96;100771.19;5077674;27;45318;-38
2022/12/21 04:50:08;;;;;;;;;0.25;0.25;;;;;21.94;39.32;100761.63;5078419;27;45587;-37
2022/12/21 04:52:34;;;;;;;;;0.75;0.50;;;;;21.99;39.12;100774.56;5076918;27;47398;-38
2022/12/21 04:54:59;;;;;;;;;2.00;0.00;;;;;21.97;39.46;100774.66;5076898;27;45402;-38
2022/12/21 04:57:25;;;;;;;;;1.00;0.00;;;;;21.97;39.44;100771.19;5076607;27;53120;-37
2022/12/21 04:59:50;;;;;;;;;0.00;0.00;;;;;21.99;39.04;100785.13;5077017;27;45370;-36
2022/12/21 05:02:16;;;;;;;;;0.00;0.00;;;;;21.97;39.12;100779.09;5077202;27;47045;-37
2022/12/21 05:04:41;;;;;;;;;0.00;0.00;;;;;21.93;39.15;100779.28;5076153;28;61835;-37
2022/12/21 05:07:06;;;;;;;;;0.00;0.00;;;;;21.95;39.08;100773.06;5076614;28;52333;-36
2022/12/21 05:09:32;;;;;;;;;0.50;0.50;;;;;21.92;39.10;100779.38;5081908;28;45525;-37
2022/12/21 05:11:57;;;;;;;;;3.00;0.00;;;;;21.91;39.02;100788.25;5083688;27;46873;-38
2022/12/21 05:14:22;;;;;;;;;1.00;1.00;;;;;21.90;39.15;100789.19;5080909;27;45168;-37
2022/12/21 05:16:48;;;;;;;;;0.25;0.00;;;;;21.85;39.15;100786.81;5103871;27;44632;-37
2022/12/21 05:19:14;;;;;;;;;0.00;0.00;;;;;21.87;39.01;100797.28;5101177;27;44892;-38
2022/12/21 05:21:39;;;;;;;;;0.00;0.00;;;;;21.86;39.32;100800.84;5098286;27;46250;-37
2022/12/21 05:24:05;;;;;;;;;0.00;0.00;;;;;21.84;39.30;100792.19;5087458;28;45239;-38
2022/12/21 05:26:30;;;;;;;;;0.25;0.25;;;;;21.80;39.46;100785.41;5079180;27;45239;-38
2022/12/21 05:28:55;;;;;;;;;0.00;0.00;;;;;21.82;39.29;100789.66;5076668;28;54839;-38
2022/12/21 05:31:21;;;;;;;;;1.00;0.50;;;;;21.81;39.18;100793.22;5077215;27;45497;-39
2022/12/21 05:33:46;;;;;;;;;1.00;0.00;;;;;21.82;39.27;100792.28;5077502;27;45357;-37
2022/12/21 05:36:13;;;;;;;;;0.00;0.00;;;;;21.80;39.09;100791.53;5077368;27;45591;-40
2022/12/21 05:38:40;;;;;;;;;0.00;0.00;;;;;21.80;39.07;100793.31;5079388;27;45437;-38
2022/12/21 05:41:05;;;;;;;;;0.50;0.00;;;;;21.77;39.13;100789.09;5083795;28;45295;-38
2022/12/21 05:43:31;;;;;;;;;0.00;0.00;;;;;21.72;38.97;100781.44;5081931;27;46079;-38
2022/12/21 05:46:15;;;;;;;;;0.00;0.00;;;;;21.71;39.36;100786.81;5086447;27;45242;-40
2022/12/21 05:48:40;;;;;;;;;0.00;0.00;;;;;21.72;39.13;100796.44;5094319;28;44693;-37
2022/12/21 05:51:14;;;;;;;;;0.00;0.00;;;;;21.70;39.16;100798.31;5092332;28;55482;-38
2022/12/21 05:53:42;;;;;;;;;0.00;0.00;;;;;21.67;39.07;100801.13;5095357;27;45377;-39
2022/12/21 05:56:08;;;;;;;;;0.00;0.00;;;;;21.64;39.41;100791.63;5091537;27;45218;-38
2022/12/21 05:58:34;;;;;;;;;0.00;0.00;;;;;21.60;39.21;100800.69;5091339;27;45160;-40
2022/12/21 06:01:05;;;;;;;;;2.00;0.00;;;;;21.58;39.18;100800.72;5093868;27;45077;-39
2022/12/21 06:03:30;;;;;;;;;0.00;0.00;;;;;21.57;39.18;100799.03;5095257;27;45121;-37
2022/12/21 06:06:07;;;;;;;;;0.00;0.00;;;;;21.55;39.08;100803.53;5098890;28;45397;-40
2022/12/21 06:08:33;;;;;;;;;0.00;0.00;;;;;21.54;39.39;100801.88;5099311;27;44827;-37
2022/12/21 06:11:17;;;;;;;;;0.00;0.00;;;;;21.53;39.31;100800.16;5098891;27;46190;-37
2022/12/21 06:13:42;;;;;;;;;1.00;0.00;;;;;21.52;39.09;100803.75;5099137;27;44962;-37
2022/12/21 06:16:14;;;;;;;;;0.00;0.00;;;;;21.53;39.21;100802.81;5092832;27;45456;-37
2022/12/21 06:18:40;;;;;;;;;0.00;0.00;;;;;21.52;39.34;100793.19;5081905;27;45365;-37
2022/12/21 06:21:06;;;;;;;;;0.00;0.00;;;;;21.49;39.68;100788.09;5082780;27;45281;-39
2022/12/21 06:23:32;;;;;;;;;0.00;0.00;;;;;21.52;39.67;100793.19;5083091;27;45314;-37
2022/12/21 06:25:59;;;;;;;;;0.00;0.00;;;;;21.51;39.47;100799.41;5085606;27;45209;-40
2022/12/21 06:28:25;;;;;;;;;0.00;0.00;;;;;21.50;39.50;100802.97;5079785;28;45526;-38
2022/12/21 06:30:52;;;;;;;;;0.00;0.00;;;;;21.50;39.59;100812.69;5089151;27;46273;-38
2022/12/21 06:33:19;;;;;;;;;0.00;0.00;;;;;21.46;39.22;100812.00;5087645;28;45796;-38
2022/12/21 06:35:44;;;;;;;;;0.00;0.00;;;;;21.48;39.54;100815.41;5087008;27;45401;-38
2022/12/21 06:38:10;;;;;;;;;0.00;0.00;;;;;21.47;39.45;100829.53;5081974;27;45437;-37
2022/12/21 06:40:35;;;;;;;;;0.00;0.00;;;;;21.46;39.72;100827.81;5079565;27;45401;-38
2022/12/21 06:43:00;;;;;;;;;0.00;0.00;;;;;21.45;39.50;100836.66;5079262;27;45464;-37
2022/12/21 06:45:26;;;;;;;;;2.75;0.00;;;;;21.44;39.45;100819.19;5079283;28;45365;-38
2022/12/21 06:47:55;;;;;;;;;0.00;0.00;;;;;21.43;39.61;100826.22;5079584;27;45306;-39
2022/12/21 06:50:21;;;;;;;;;0.00;0.00;;;;;21.42;39.60;100821.06;5078909;27;47564;-37
2022/12/21 06:52:47;;;;;;;;;0.25;0.00;;;;;21.41;39.78;100816.72;5079054;28;45944;-37
2022/12/21 06:55:13;;;;;;;;;0.00;0.00;;;;;21.39;39.78;100823.84;5078927;28;45353;-38
2022/12/21 06:57:38;;;;;;;;;1.00;1.00;;;;;21.41;39.66;100827.25;5079000;27;45459;-39
2022/12/21 07:00:05;;;;;;;;;3.00;0.00;;;;;21.40;39.59;100830.84;5078647;27;46232;-37
2022/12/21 07:02:30;;;;;;;;;1.00;1.00;;;;;21.42;39.34;100829.78;5082998;27;45342;-38
2022/12/21 07:04:55;;;;;;;;;2.50;0.00;;;;;21.42;39.37;100834.22;5083764;27;45311;-39
2022/12/21 07:07:21;;;;;;;;;2.75;0.00;;;;;21.40;39.58;100830.84;5079466;27;45520;-37
2022/12/21 07:09:46;;;;;;;;;1.00;0.00;;;;;21.43;39.59;100844.69;5078409;27;46308;-38
2022/12/21 07:12:11;;;;;;;;;0.00;0.00;;;;;21.43;39.45;100849.13;5078423;28;53630;-38
2022/12/21 07:14:36;;;;;;;;;0.00;0.00;;;;;21.44;39.42;100848.19;5081169;27;45230;-38
2022/12/21 07:17:02;;;;;;;;;0.00;0.00;;;;;21.43;39.65;100846.47;5076204;27;45446;-37
2022/12/21 07:19:29;;;;;;;;;1.00;0.00;;;;;21.43;39.67;100838.56;5075361;28;48542;-39
2022/12/21 07:21:54;;;;;;;;;2.00;0.00;;;;;21.43;39.33;100846.47;5078310;27;45413;-39
2022/12/21 07:24:20;;;;;;;;;0.00;0.00;;;;;21.43;39.57;100844.69;5078331;27;45172;-38
2022/12/21 07:26:45;;;;;;;;;0.00;0.00;;;;;21.44;39.61;100835.00;5078715;27;45324;-38
2022/12/21 07:29:13;;;;;;;;;0.00;0.00;;;;;21.44;39.81;100833.19;5079067;27;46266;-38
2022/12/21 07:31:39;;;;;;;;;0.00;0.00;;;;;21.43;39.72;100843.84;5083270;27;45360;-38
2022/12/21 07:34:04;;;;;;;;;0.00;0.00;;;;;21.44;39.38;100842.91;5084529;27;45426;-39
2022/12/21 07:36:29;;;;;;;;;0.33;0.33;;;;;21.45;39.44;100850.72;5078329;27;54357;-37
2022/12/21 07:38:55;;;;;;;;;0.00;0.00;;;;;21.46;39.64;100847.16;5077630;27;45349;-38
2022/12/21 07:41:21;;;;;;;;;0.75;0.00;;;;;21.48;39.71;100857.59;5078194;27;45864;-38
2022/12/21 07:43:46;;;;;;;;;0.00;0.00;;;;;21.49;39.69;100859.28;5078633;27;45448;-37
2022/12/21 07:46:13;;;;;;;;;0.00;0.00;;;;;21.51;39.42;100870.59;5078868;27;45509;-37
2022/12/21 07:48:38;;;;;;;;;0.00;0.00;;;;;21.48;39.54;100852.31;5078069;28;45385;-37
2022/12/21 07:51:04;;;;;;;;;0.00;0.00;;;;;21.53;39.36;100870.50;5077932;27;45381;-39
2022/12/21 07:53:30;;;;;;;;;1.00;0.00;;;;;21.52;39.65;100867.03;5079827;27;45355;-37
2022/12/21 07:56:04;;;;;;;;;0.50;0.00;;;;;21.55;39.57;100869.47;5080603;27;45259;-37
2022/12/21 07:58:30;;;;;;;;;0.00;0.00;;;;;21.55;39.50;100877.38;5078272;27;47322;-37
2022/12/21 08:01:01;;;;;;;;;0.50;0.50;;;;;21.53;39.39;100868.72;5082781;27;45324;-38
2022/12/21 08:03:27;;;;;;;;;0.00;0.00;;;;;21.57;39.36;100886.03;5078527;27;45258;-38
2022/12/21 08:05:53;;;;;;;;;0.67;0.67;;;;;21.60;39.12;100890.34;5076532;28;52229;-39
2022/12/21 08:08:18;;;;;;;;;0.00;0.00;;;;;21.61;39.34;100879.69;5069900;27;45421;-40
2022/12/21 08:10:45;;;;;;;;;0.00;0.00;;;;;21.62;39.34;100873.47;5076005;28;55576;-37
2022/12/21 08:13:10;;;;;;;;;0.00;0.00;;;;;21.61;38.91;100877.06;5062207;27;45255;-36
2022/12/21 08:15:36;;;;;;;;;0.00;0.00;;;;;21.63;39.06;100879.59;5079032;27;45262;-37
2022/12/21 08:18:01;;;;;;;;;0.75;0.00;;;;;21.63;39.04;100879.59;5079542;27;56970;-37
2022/12/21 08:20:26;;;;;;;;;0.00;0.00;;;;;21.64;38.96;100880.47;5084023;27;45360;-37
2022/12/21 08:22:52;;;;;;;;;0.00;0.00;;;;;21.64;38.84;100880.47;5089781;27;45240;-38
2022/12/21 08:25:17;;;;;;;;;1.00;0.00;;;;;21.61;38.67;100879.69;5097590;27;44819;-38
2022/12/21 08:27:43;;;;;;;;;0.25;0.00;;;;;21.60;39.01;100880.63;5100867;27;45448;-38
2022/12/21 08:30:09;;;;;;;;;0.00;0.00;;;;;21.59;39.18;100871.03;5099048;28;64594;-40
2022/12/21 08:32:34;;;;;;;;;1.75;0.00;;;;;21.59;38.98;100878.94;5079091;27;45365;-39
2022/12/21 08:34:59;;;;;;;;;0.00;0.00;;;;;21.58;39.06;100871.94;5079834;27;58510;-39
2022/12/21 08:37:24;;;;;;;;;0.00;0.00;;;;;21.58;39.08;100864.00;5077103;27;70509;-38
2022/12/21 08:39:50;;;;;;;;;0.25;0.25;;;;;21.56;38.85;100868.53;5076403;28;47595;-37
2022/12/21 08:42:15;;;;;;;;;0.25;0.25;;;;;21.55;39.01;100873.91;5077197;27;45405;-37
2022/12/21 08:44:40;;;;;;;;;0.33;0.33;;;;;21.51;39.00;100870.59;5076482;28;55646;-38
2022/12/21 08:47:06;;;;;;;;;1.00;0.25;;;;;21.52;39.15;100888.13;5076957;27;45420;-37
2022/12/21 08:49:32;;;;;;;;;1.00;1.00;;;;;21.51;39.04;100882.91;5076969;27;45251;-37
2022/12/21 08:51:57;;;;;;;;;1.00;1.00;;;;;21.48;39.03;100886.59;5077423;28;45358;-37
2022/12/21 08:54:23;;;;;;;;;1.50;0.00;;;;;21.48;39.28;100886.59;5078279;27;45199;-37
2022/12/21 08:56:49;;;;;;;;;0.75;0.75;;;;;21.46;39.31;100891.09;5084560;27;46189;-38
2022/12/21 08:59:14;;;;;;;;;0.50;0.25;;;;;21.50;39.27;100890.00;5080579;27;45233;-38
2022/12/21 09:01:40;;;;;;;;;1.00;0.00;;;;;21.51;39.41;100883.78;5083625;28;48042;-40
2022/12/21 09:04:05;;;;;;;;;1.00;1.00;;;;;21.51;39.08;100870.59;5086351;27;45153;-39
2022/12/21 09:06:31;;;;;;;;;0.00;0.00;;;;;21.52;38.80;100866.16;5077286;27;45562;-41
2022/12/21 09:08:56;;;;;;;;;1.00;1.00;;;;;21.53;38.79;100868.72;5087053;28;51754;-41
2022/12/21 09:11:23;;;;;;;;;1.75;1.25;;;;;21.53;38.94;100863.44;5071213;28;45479;-40
2022/12/21 09:13:49;;;;;;;;;0.00;0.00;;;;;21.54;38.86;100866.94;5063947;28;45428;-43
2022/12/21 09:16:22;;;;;;;;;0.25;0.25;;;;;21.54;39.22;100874.84;5072162;28;46404;-39
2022/12/21 09:18:47;;;;;;;;;1.00;1.00;;;;;21.52;39.01;100877.56;5070326;28;45720;-39
2022/12/21 09:21:15;;;;;;;;;0.25;0.25;;;;;21.54;38.58;100883.63;5063239;28;45260;-46
2022/12/21 09:23:40;;;;;;;;;1.50;0.00;;;;;21.54;38.87;100875.69;5058564;28;45434;-40
2022/12/21 09:26:07;;;;;;;;;0.25;0.25;;;;;21.53;38.80;100879.28;5061601;28;46756;-38
2022/12/21 09:28:33;;;;;;;;;0.00;0.00;;;;;21.54;38.85;100880.97;5064060;28;45648;-40
2022/12/21 09:31:09;;;;;;;;;0.25;0.25;;;;;21.55;38.47;100877.38;5062853;28;45371;-38
2022/12/21 09:33:36;;;;;;;;;0.00;0.00;;;;;21.55;38.52;100882.66;5060702;28;45364;-38
2022/12/21 09:36:01;;;;;;;;;1.75;1.00;;;;;21.54;38.61;100875.69;5060655;28;48301;-38
2022/12/21 09:38:28;;;;;;;;;1.50;0.00;;;;;21.50;38.87;100887.34;5062152;28;45188;-37
2022/12/21 09:40:59;;;;;;;;;1.00;1.00;;;;;21.47;38.46;100916.53;5074721;28;45480;-38
2022/12/21 09:43:33;;;;;;;;;0.00;0.00;;;;;21.42;38.55;100897.50;5069069;27;45461;-39
2022/12/21 09:46:06;;;;;;;;;0.00;0.00;;;;;21.43;39.08;100894.78;5059320;28;45250;-37
2022/12/21 09:48:41;;;;;;;;;0.00;0.00;;;;;21.42;38.79;100897.50;5058319;28;45280;-37
2022/12/21 09:51:14;;;;;;;;;1.00;1.00;;;;;21.40;38.82;100907.28;5061202;28;45406;-38
2022/12/21 09:54:00;;;;;;;;;0.00;0.00;;;;;21.38;38.83;100914.44;5064958;28;45431;-38
2022/12/21 09:56:27;;;;;;;;;0.75;0.75;;;;;21.36;39.02;100909.25;5062230;28;45382;-38
2022/12/21 09:58:53;;;;;;;;;0.00;0.00;;;;;21.34;39.27;100910.28;5061230;28;45293;-39
2022/12/21 10:01:26;;;;;;;;;0.25;0.25;;;;;21.31;39.21;100912.16;5065568;28;45453;-40
2022/12/21 10:03:57;;;;;;;;;0.00;0.00;;;;;21.18;39.06;100887.44;5081854;28;44692;-39
2022/12/21 10:06:54;;;;;;;;;0.75;0.50;;;;;21.28;39.21;100914.09;5081493;28;45227;-38
2022/12/21 10:09:47;;;;;;;;;1.50;1.00;;;;;21.28;39.13;100914.97;5067157;28;45407;-37
2022/12/21 10:12:27;;;;;;;;;0.50;0.50;;;;;21.28;39.00;100914.97;5062319;28;45336;-37
2022/12/21 10:15:08;;;;;;;;;0.00;0.00;;;;;21.27;39.24;100915.06;5064960;28;45193;-37
2022/12/21 10:18:21;;;;;;;;;0.00;0.00;;;;;21.26;39.34;100902.81;5063192;28;45429;-39
2022/12/21 10:21:24;;;;;;;;;0.00;0.00;;;;;21.27;39.54;100905.38;5026806;28;45751;-38
2022/12/21 10:23:52;;;;;;;;;0.00;0.00;;;;;21.24;39.33;100894.16;5043260;28;45281;-38
2022/12/21 10:26:22;;;;;;;;;0.00;0.00;;;;;21.26;39.32;100898.38;5058963;28;45592;-37
2022/12/21 10:28:53;;;;;;;;;0.50;0.00;;;;;21.26;39.38;100890.47;5059491;28;46278;-39
2022/12/21 10:31:40;;;;;;;;;0.00;0.00;;;;;21.25;39.26;100880.88;5058832;28;45454;-36
2022/12/21 10:34:16;;;;;;;;;0.25;0.25;;;;;21.22;39.14;100875.75;5058980;28;45463;-44
2022/12/21 10:36:43;;;;;;;;;0.25;0.25;;;;;21.24;38.87;100879.16;5058985;28;45337;-38
2022/12/21 10:39:13;;;;;;;;;0.00;0.00;;;;;21.24;39.33;100881.81;5058914;28;46210;-39
2022/12/21 10:41:44;;;;;;;;;0.00;0.00;;;;;21.24;39.47;100884.44;5059393;28;45895;-38
2022/12/21 10:44:12;;;;;;;;;1.75;0.00;;;;;21.24;39.18;100871.25;5058646;28;45387;-38
2022/12/21 10:46:37;;;;;;;;;1.00;0.00;;;;;21.20;39.18;100856.59;5061676;28;45345;-41
2022/12/21 10:49:25;;;;;;;;;0.25;0.25;;;;;21.23;39.30;100853.75;5062926;28;46695;-37
2022/12/21 10:51:50;;;;;;;;;2.00;0.00;;;;;21.21;39.49;100850.38;5058546;28;45942;-39
2022/12/21 10:54:25;;;;;;;;;1.00;1.00;;;;;21.14;39.61;100830.56;5058499;28;45342;-40
2022/12/21 10:56:51;;;;;;;;;1.00;0.75;;;;;21.21;39.38;100838.97;5058778;28;45452;-41
2022/12/21 10:59:23;;;;;;;;;0.75;0.75;;;;;21.19;39.54;100839.06;5058055;28;45432;-41
2022/12/21 11:01:50;;;;;;;;;0.50;0.50;;;;;21.20;39.67;100843.41;5057921;28;45880;-40
2022/12/21 11:04:21;;;;;;;;;2.00;2.00;;;;;21.20;39.57;100832.00;5058426;28;45334;-41
2022/12/21 11:06:59;;;;;;;;;1.00;1.00;;;;;21.19;39.15;100825.88;5058479;28;45546;-42
2022/12/21 11:09:32;;;;;;;;;1.50;0.50;;;;;21.19;39.31;100822.38;5058296;28;45530;-41
2022/12/21 11:12:22;;;;;;;;;1.00;1.00;;;;;21.15;39.50;100814.69;5058540;28;45737;-41
2022/12/21 11:14:51;;;;;;;;;1.75;0.75;;;;;21.12;39.29;100806.94;5061502;28;45287;-41
2022/12/21 11:17:26;;;;;;;;;1.00;1.00;;;;;21.18;39.08;100818.91;5063688;28;45163;-43
2022/12/21 11:20:08;;;;;;;;;0.50;0.50;;;;;21.19;39.30;100810.06;5072564;28;47113;-41
2022/12/21 11:22:39;;;;;;;;;2.25;1.25;;;;;21.19;39.44;100806.56;5073341;28;45720;-42
2022/12/21 11:25:05;;;;;;;;;2.00;1.00;;;;;21.17;39.41;100809.31;5072525;28;45117;-43
2022/12/21 11:27:33;;;;;;;;;5.00;1.00;;;;;21.13;39.11;100797.25;5067006;28;45311;-41
2022/12/21 11:30:08;;;;;;;;;2.50;0.75;;;;;21.18;39.56;100805.75;5068478;28;45391;-41
2022/12/21 11:32:35;;;;;;;;;1.00;1.00;;;;;21.16;39.25;100808.47;5067050;28;45640;-42
2022/12/21 11:35:07;;;;;;;;;1.00;1.00;;;;;21.15;39.11;100800.63;5061225;28;45303;-41
2022/12/21 11:37:38;;;;;;;;;1.00;1.00;;;;;21.18;39.16;100803.09;5058395;28;45569;-38
2022/12/21 11:40:24;;;;;;;;;3.75;0.00;;;;;21.16;39.34;100786.53;5057902;28;46770;-38
2022/12/21 11:43:01;;;;;;;;;0.50;0.50;;;;;21.19;39.11;100789.00;5059772;28;45389;-41
2022/12/21 11:46:02;;;;;;;;;1.25;1.00;;;;;21.18;39.23;100787.28;5061696;28;45304;-40